KCXW Airport (Cantrell Fld) Information

FAA: CXW - ICAO: KCXW

KCXW Airport Location

State Arkansas
County Faulkner
City Conway
KCXW Airport is 7 miles southwest of Conway, AR.
Latitude 35-01-11.6000N
Longitude 092-33-18.4000W
Elevation 276ft

KCXW Airport METARs

METAR KCXW 240915Z AUTO 00000KT 10SM SCT048 SCT055 09/09 A3008 RMK A01
Altimeter 30.08"
Temperature 9.0°C (48.2°F)
Wind 0° at 0KT
Clouds scattered at 4,800ft scattered at 5,500ft
Visibility 10.0mi
Time observed: 2021-09-24T09:15:00Z

KCXW Airport Details

Status Operational
Activation August 2014
Ownership Public
Usage Public
Chart MEMPHIS
ATC on-site No
Beacon schedule sunset-sunrise
Beacon color clear green

KCXW Airport Contacts

Owner CITY OF CONWAY
Owner address 1111 MAIN STREET, CONWAY, AR 72032
Owner phone 501-450-6110
Manager REX POE
Manager address 234 ROOSTER RD, CONWAY, AR 72032
Manager phone 501-450-8428

KCXW Airport (Cantrell Fld) Radio Frequencies

KCXW (Airport) Radio Frequencies

UNICOM 123.05
Common traffic advisory frequency (CTAF) 123.05